createdAt,value
2022-11-17T00:00:14.591Z,12.80
2022-11-17T00:03:17.188Z,12.52
2022-11-17T00:06:20.990Z,11.60
2022-11-17T00:09:24.011Z,11.70
2022-11-17T00:12:45.420Z,11.00
2022-11-17T00:15:48.520Z,11.10
2022-11-17T00:19:09.711Z,11.48
2022-11-17T00:22:12.485Z,10.67
2022-11-17T00:25:15.182Z,10.57
2022-11-17T00:28:18.128Z,10.75
2022-11-17T00:31:40.571Z,11.27
2022-11-17T00:34:43.244Z,11.68
2022-11-17T00:38:04.897Z,10.70
2022-11-17T00:41:07.638Z,10.52
2022-11-17T00:44:10.674Z,10.43
2022-11-17T00:47:13.422Z,10.55
2022-11-17T00:50:16.224Z,9.90
2022-11-17T00:53:18.952Z,9.57
2022-11-17T00:56:21.863Z,10.20
2022-11-17T00:59:24.549Z,10.63
2022-11-17T01:02:27.522Z,10.85
2022-11-17T01:05:33.183Z,9.65
2022-11-17T01:08:36.597Z,10.43
2022-11-17T01:11:39.514Z,10.35
2022-11-17T01:14:42.307Z,11.13
2022-11-17T01:17:45.011Z,11.35
2022-11-17T01:20:47.677Z,10.23
2022-11-17T01:23:52.239Z,10.30
2022-11-17T01:26:54.922Z,11.20
2022-11-17T01:29:57.624Z,12.00
2022-11-17T01:33:00.368Z,11.32
2022-11-17T01:36:11.323Z,11.48
2022-11-17T01:39:14.085Z,11.97
2022-11-17T01:42:22.628Z,11.00
2022-11-17T01:45:26.925Z,10.75
2022-11-17T01:48:29.569Z,10.75
2022-11-17T01:51:36.847Z,11.15
2022-11-17T01:54:42.485Z,11.80
2022-11-17T01:57:51.577Z,11.02
2022-11-17T02:00:55.557Z,11.23
2022-11-17T02:03:58.308Z,10.88
2022-11-17T02:07:13.195Z,11.15
2022-11-17T02:10:16.508Z,11.50
2022-11-17T02:13:22.739Z,11.93
2022-11-17T02:16:25.506Z,11.88
2022-11-17T02:19:35.622Z,12.40
2022-11-17T02:22:53.508Z,12.40
2022-11-17T02:26:42.092Z,11.87
2022-11-17T02:30:07.528Z,12.85
2022-11-17T02:33:25.101Z,13.43
2022-11-17T02:36:56.581Z,13.55
2022-11-17T02:40:05.379Z,13.10
2022-11-17T02:43:32.959Z,12.80
2022-11-17T02:46:53.962Z,12.55
2022-11-17T02:50:02.102Z,13.52
2022-11-17T02:53:06.159Z,13.18
2022-11-17T02:56:08.970Z,13.32
2022-11-17T02:59:15.795Z,13.73
2022-11-17T03:02:33.272Z,12.95
2022-11-17T03:05:48.330Z,14.75
2022-11-17T03:09:10.196Z,14.10
2022-11-17T03:12:34.981Z,14.07
2022-11-17T03:15:46.913Z,12.37
2022-11-17T03:19:01.290Z,14.13
2022-11-17T03:22:07.011Z,15.30
2022-11-17T03:25:15.498Z,14.40
2022-11-17T03:28:21.392Z,15.27
2022-11-17T03:31:26.691Z,15.30
2022-11-17T03:34:35.961Z,14.90
2022-11-17T03:37:45.048Z,14.45
2022-11-17T03:40:50.538Z,13.85
2022-11-17T03:43:56.475Z,14.30
2022-11-17T03:47:02.087Z,13.77
2022-11-17T03:50:25.302Z,14.55
2022-11-17T03:53:28.122Z,15.68
2022-11-17T03:57:12.346Z,15.93
2022-11-17T04:00:16.763Z,15.15
2022-11-17T04:03:22.578Z,16.87
2022-11-17T04:06:25.380Z,17.45
2022-11-17T04:09:28.205Z,17.83
2022-11-17T04:12:49.721Z,17.02
2022-11-17T04:15:59.250Z,14.65
2022-11-17T04:19:02.365Z,14.63
2022-11-17T04:22:05.094Z,15.13
2022-11-17T04:25:08.335Z,15.23
2022-11-17T04:28:29.648Z,14.90
2022-11-17T04:31:32.493Z,15.63
2022-11-17T04:34:35.111Z,15.73
2022-11-17T04:37:38.139Z,15.63
2022-11-17T04:41:01.074Z,14.48
2022-11-17T04:44:05.373Z,17.73
2022-11-17T04:47:08.203Z,20.13
2022-11-17T04:50:10.857Z,20.03
2022-11-17T04:53:13.475Z,18.55
2022-11-17T04:56:16.380Z,18.63
2022-11-17T04:59:19.585Z,18.50
2022-11-17T05:02:22.303Z,18.85
2022-11-17T05:05:25.075Z,19.07
2022-11-17T05:08:27.772Z,19.08
2022-11-17T05:11:49.981Z,20.13
2022-11-17T05:14:52.593Z,19.95
2022-11-17T05:17:55.418Z,20.42
2022-11-17T05:21:05.697Z,20.10
2022-11-17T05:24:09.135Z,21.50
2022-11-17T05:27:11.774Z,22.30
2022-11-17T05:30:15.475Z,23.15
2022-11-17T05:33:18.147Z,22.65
2022-11-17T05:36:22.725Z,20.30
2022-11-17T05:39:25.404Z,19.10
2022-11-17T05:42:28.128Z,18.95
2022-11-17T05:45:30.796Z,22.02
2022-11-17T05:48:36.361Z,19.48
2022-11-17T05:51:39.016Z,18.63
2022-11-17T05:54:41.731Z,18.02
2022-11-17T05:57:44.950Z,18.58
2022-11-17T06:00:47.889Z,20.13
2022-11-17T06:03:54.263Z,17.88
2022-11-17T06:07:01.970Z,17.07
2022-11-17T06:10:05.177Z,17.30
2022-11-17T06:13:07.871Z,16.58
2022-11-17T06:16:14.318Z,16.25
2022-11-17T06:19:25.000Z,17.10
2022-11-17T06:22:28.188Z,16.23
2022-11-17T06:25:34.050Z,15.85
2022-11-17T06:28:39.519Z,15.73
2022-11-17T06:31:45.134Z,15.32
2022-11-17T06:34:55.226Z,14.70
2022-11-17T06:37:58.211Z,15.43
2022-11-17T06:41:01.043Z,14.35
2022-11-17T06:44:04.109Z,15.85
2022-11-17T06:47:06.878Z,15.95
2022-11-17T06:50:10.402Z,15.80
2022-11-17T06:53:13.170Z,16.10
2022-11-17T06:56:17.645Z,16.90
2022-11-17T06:59:21.533Z,16.63
2022-11-17T07:02:26.370Z,15.23
2022-11-17T07:05:34.114Z,14.73
2022-11-17T07:08:38.529Z,14.33
2022-11-17T07:11:42.306Z,13.68
2022-11-17T07:14:45.340Z,14.27
2022-11-17T07:17:48.474Z,14.60
2022-11-17T07:20:51.714Z,13.63
2022-11-17T07:23:54.695Z,14.13
2022-11-17T07:26:58.907Z,15.30
2022-11-17T07:30:07.299Z,13.95
2022-11-17T07:33:10.253Z,13.65
2022-11-17T07:36:15.392Z,12.18
2022-11-17T07:39:21.514Z,11.57
2022-11-17T07:42:25.249Z,11.65
2022-11-17T07:45:32.253Z,12.15
2022-11-17T07:48:35.783Z,11.23
2022-11-17T07:51:38.836Z,11.23
2022-11-17T07:54:41.601Z,11.40
2022-11-17T07:57:44.486Z,11.13
2022-11-17T08:00:48.086Z,10.50
2022-11-17T08:03:55.558Z,9.75
2022-11-17T08:07:07.136Z,9.73
2022-11-17T08:10:10.553Z,10.27
2022-11-17T08:13:14.371Z,9.63
2022-11-17T08:16:17.464Z,10.60
2022-11-17T08:19:21.067Z,9.38
2022-11-17T08:22:24.287Z,9.48
2022-11-17T08:25:27.481Z,10.00
2022-11-17T08:28:30.713Z,9.98
2022-11-17T08:31:35.182Z,9.80
2022-11-17T08:34:38.414Z,9.68
2022-11-17T08:37:41.841Z,9.48
2022-11-17T08:40:48.615Z,9.03
2022-11-17T08:43:51.977Z,8.60
2022-11-17T08:46:54.853Z,9.70
2022-11-17T08:49:58.028Z,9.00
2022-11-17T08:53:00.869Z,8.82
2022-11-17T08:56:13.715Z,8.17
2022-11-17T08:59:17.895Z,8.80
2022-11-17T09:02:30.424Z,8.38
2022-11-17T09:05:53.783Z,8.70
2022-11-17T09:08:56.980Z,8.73
2022-11-17T09:12:01.664Z,7.93
2022-11-17T09:15:05.884Z,8.15
2022-11-17T09:18:08.673Z,7.70
2022-11-17T09:21:16.635Z,7.45
2022-11-17T09:24:19.351Z,7.50
2022-11-17T09:27:22.053Z,7.97
2022-11-17T09:30:31.651Z,8.52
2022-11-17T09:33:35.443Z,8.43
2022-11-17T09:36:38.803Z,8.63
2022-11-17T09:43:26.516Z,7.97
2022-11-17T09:46:44.299Z,8.02
2022-11-17T09:49:59.052Z,7.45
2022-11-17T09:53:22.096Z,8.55
2022-11-17T09:56:28.040Z,8.88
2022-11-17T09:59:33.706Z,7.50
2022-11-17T10:02:36.692Z,7.38
2022-11-17T10:05:39.797Z,8.30
2022-11-17T10:08:54.816Z,7.45
2022-11-17T10:12:13.585Z,6.82
2022-11-17T10:15:46.596Z,7.33
2022-11-17T10:18:50.649Z,7.45
2022-11-17T10:22:13.095Z,7.80
2022-11-17T10:25:37.177Z,7.15
2022-11-17T10:28:40.805Z,7.78
2022-11-17T10:31:45.649Z,7.37
2022-11-17T10:34:50.740Z,8.23
2022-11-17T10:37:57.511Z,8.40
2022-11-17T10:41:03.293Z,7.97
2022-11-17T10:44:59.294Z,7.82
2022-11-17T10:48:24.724Z,8.03
2022-11-17T10:51:33.115Z,8.10
2022-11-17T10:54:36.538Z,7.38
2022-11-17T10:57:46.606Z,7.18
2022-11-17T11:00:59.292Z,7.72
2022-11-17T11:04:07.916Z,7.80
2022-11-17T11:07:24.591Z,7.47
2022-11-17T11:10:34.561Z,7.60
2022-11-17T11:14:00.282Z,8.05
2022-11-17T11:17:13.201Z,8.57
2022-11-17T11:20:19.202Z,8.20
2022-11-17T11:23:52.305Z,7.97
2022-11-17T11:27:39.141Z,6.90
2022-11-17T11:31:59.704Z,5.90
2022-11-17T11:35:42.344Z,5.97
2022-11-17T11:39:01.004Z,5.60
2022-11-17T11:42:37.491Z,6.38
2022-11-17T11:45:59.811Z,7.97
2022-11-17T11:49:22.307Z,6.97
2022-11-17T11:52:31.002Z,6.43
2022-11-17T11:55:37.830Z,6.73
2022-11-17T11:59:01.516Z,6.97
2022-11-17T12:02:25.085Z,7.15
2022-11-17T12:06:21.773Z,9.95
2022-11-17T12:09:30.430Z,7.72
2022-11-17T12:12:41.192Z,7.13
2022-11-17T12:15:44.073Z,8.13
2022-11-17T12:18:46.982Z,8.43
2022-11-17T12:21:55.637Z,8.32
2022-11-17T12:25:05.804Z,7.38
2022-11-17T12:28:35.943Z,6.70
2022-11-17T12:31:44.095Z,6.45
2022-11-17T12:35:25.291Z,6.95
2022-11-17T12:38:31.420Z,6.40
2022-11-17T12:41:49.705Z,7.60
2022-11-17T12:44:58.364Z,7.70
2022-11-17T12:48:26.863Z,6.32
2022-11-17T12:51:44.263Z,7.13
2022-11-17T12:55:01.988Z,7.13
2022-11-17T12:58:18.594Z,7.65
2022-11-17T13:02:09.829Z,7.27
2022-11-17T13:05:19.051Z,6.53
2022-11-17T13:08:24.077Z,7.30
2022-11-17T13:11:27.651Z,6.90
2022-11-17T13:14:32.186Z,7.63
2022-11-17T13:17:42.276Z,7.77
2022-11-17T13:20:48.727Z,9.65
2022-11-17T13:23:52.679Z,9.98
2022-11-17T13:27:00.669Z,6.78
2022-11-17T13:30:27.861Z,10.65
2022-11-17T13:33:40.822Z,11.53
2022-11-17T13:36:57.241Z,10.95
2022-11-17T13:40:01.630Z,7.32
2022-11-17T13:43:06.603Z,8.68
2022-11-17T13:50:55.683Z,9.47
2022-11-17T13:54:03.187Z,10.68
2022-11-17T13:58:26.683Z,13.52
2022-11-17T14:01:31.555Z,16.00
2022-11-17T14:04:34.447Z,14.95
2022-11-17T14:07:39.760Z,12.93
2022-11-17T14:10:42.861Z,13.65
2022-11-17T14:13:49.693Z,14.77
2022-11-17T14:16:53.462Z,16.20
2022-11-17T14:20:36.742Z,15.00
2022-11-17T14:23:40.646Z,25.77
2022-11-17T14:26:44.924Z,24.52
2022-11-17T14:29:47.739Z,17.92
2022-11-17T14:32:50.627Z,18.98
2022-11-17T14:35:56.264Z,16.52
2022-11-17T14:39:00.725Z,13.27
2022-11-17T14:42:03.617Z,14.55
2022-11-17T14:45:06.815Z,17.20
2022-11-17T14:48:17.578Z,18.00
2022-11-17T14:51:22.187Z,16.15
2022-11-17T14:54:25.836Z,17.83
2022-11-17T14:57:28.946Z,15.82
2022-11-17T15:00:32.027Z,17.67
2022-11-17T15:03:34.851Z,18.00
2022-11-17T15:06:38.022Z,20.92
2022-11-17T15:09:41.091Z,28.63
2022-11-17T15:12:43.892Z,25.23
2022-11-17T15:15:46.668Z,19.58
2022-11-17T15:18:49.543Z,18.02
2022-11-17T15:21:52.986Z,18.17
2022-11-17T15:24:55.841Z,19.00
2022-11-17T15:27:58.657Z,19.90
2022-11-17T15:31:20.645Z,22.63
2022-11-17T15:34:23.482Z,22.15
2022-11-17T15:37:26.244Z,21.00
2022-11-17T15:40:29.296Z,19.87
2022-11-17T15:43:35.134Z,21.75
2022-11-17T15:46:41.578Z,19.83
2022-11-17T15:49:47.156Z,25.23
2022-11-17T15:53:03.453Z,32.88
2022-11-17T15:56:37.361Z,33.43
2022-11-17T15:59:40.157Z,36.53
2022-11-17T16:02:42.890Z,41.85
2022-11-17T16:05:45.702Z,34.92
2022-11-17T16:08:49.241Z,37.45
2022-11-17T16:11:52.101Z,49.20
2022-11-17T16:14:54.852Z,51.80
2022-11-17T16:17:57.759Z,49.28
2022-11-17T16:21:08.691Z,46.72
2022-11-17T16:24:12.108Z,49.70
2022-11-17T16:27:14.801Z,52.73
2022-11-17T16:30:17.791Z,45.70
2022-11-17T16:33:20.673Z,34.28
2022-11-17T16:36:29.995Z,34.65
2022-11-17T16:39:35.549Z,48.72
2022-11-17T16:42:44.170Z,60.93
2022-11-17T16:45:46.930Z,47.78
2022-11-17T16:48:50.276Z,47.15
2022-11-17T16:51:56.686Z,48.50
2022-11-17T16:55:04.537Z,44.00
2022-11-17T16:58:09.772Z,38.50
2022-11-17T17:01:15.315Z,50.38
2022-11-17T17:04:18.088Z,58.80
2022-11-17T17:07:21.144Z,63.10
2022-11-17T17:10:24.956Z,62.47
2022-11-17T17:13:28.044Z,55.57
2022-11-17T17:16:33.802Z,75.43
2022-11-17T17:19:36.759Z,72.22
2022-11-17T17:22:39.839Z,62.97
2022-11-17T17:25:42.615Z,57.30
2022-11-17T17:28:47.363Z,48.97
2022-11-17T17:31:50.098Z,47.20
2022-11-17T17:34:53.555Z,43.25
2022-11-17T17:37:56.851Z,52.08
2022-11-17T17:41:10.028Z,47.78
2022-11-17T17:44:18.176Z,29.37
2022-11-17T17:47:21.550Z,25.08
2022-11-17T17:50:29.018Z,20.75
2022-11-17T17:53:32.095Z,18.15
2022-11-17T17:56:35.113Z,19.65
2022-11-17T17:59:38.071Z,21.77
2022-11-17T18:02:41.031Z,20.33
2022-11-17T18:05:44.536Z,22.25
2022-11-17T18:08:48.051Z,21.70
2022-11-17T18:11:51.384Z,20.30
2022-11-17T18:14:54.463Z,19.50
2022-11-17T18:17:57.422Z,19.23
2022-11-17T18:21:09.888Z,19.60
2022-11-17T18:24:13.303Z,20.52
2022-11-17T18:27:16.357Z,23.30
2022-11-17T18:30:19.400Z,27.67
2022-11-17T18:33:22.566Z,28.48
2022-11-17T18:36:27.171Z,25.80
2022-11-17T18:39:31.728Z,27.98
2022-11-17T18:42:34.403Z,25.02
2022-11-17T18:45:38.690Z,24.37
2022-11-17T18:48:44.368Z,30.30
2022-11-17T18:51:47.476Z,27.67
2022-11-17T18:54:50.570Z,23.33
2022-11-17T18:57:53.552Z,23.27
2022-11-17T19:00:58.111Z,23.13
2022-11-17T19:04:04.799Z,22.83
2022-11-17T19:07:07.782Z,28.20
2022-11-17T19:10:10.867Z,27.75
2022-11-17T19:13:13.795Z,25.75
2022-11-17T19:16:21.860Z,22.90
2022-11-17T19:19:26.191Z,21.23
2022-11-17T19:22:29.894Z,23.25
2022-11-17T19:25:35.577Z,25.88
2022-11-17T19:28:39.492Z,26.05
2022-11-17T19:31:42.415Z,35.27
2022-11-17T19:34:45.629Z,33.47
2022-11-17T19:37:48.723Z,36.35
2022-11-17T19:40:51.799Z,31.13
2022-11-17T19:43:56.544Z,38.53
2022-11-17T19:46:59.541Z,41.73
2022-11-17T19:50:02.448Z,49.80
2022-11-17T19:53:05.516Z,77.38
2022-11-17T19:56:08.719Z,97.05
2022-11-17T19:59:16.007Z,100.03
2022-11-17T20:02:19.690Z,102.67
2022-11-17T20:05:22.622Z,92.05
2022-11-17T20:08:25.588Z,82.05
2022-11-17T20:11:28.993Z,80.32
2022-11-17T20:14:32.118Z,48.50
2022-11-17T20:17:35.427Z,36.77
2022-11-17T20:20:38.505Z,35.10
2022-11-17T20:23:42.085Z,27.13
2022-11-17T20:26:46.416Z,25.92
2022-11-17T20:29:49.445Z,29.15
2022-11-17T20:32:52.377Z,28.33
2022-11-17T20:35:55.459Z,28.20
2022-11-17T20:39:00.883Z,28.30
2022-11-17T20:42:03.930Z,27.83
2022-11-17T20:45:07.430Z,26.00
2022-11-17T20:48:10.291Z,25.73
2022-11-17T20:51:16.937Z,24.58
2022-11-17T20:54:20.027Z,23.40
2022-11-17T20:57:22.919Z,22.10
2022-11-17T21:00:25.877Z,21.58
2022-11-17T21:03:28.974Z,23.67
2022-11-17T21:06:32.268Z,22.70
2022-11-17T21:09:35.464Z,24.05
2022-11-17T21:12:38.779Z,23.25
2022-11-17T21:15:41.723Z,24.52
2022-11-17T21:18:46.872Z,22.73
2022-11-17T21:21:54.179Z,23.25
2022-11-17T21:24:57.191Z,24.05
2022-11-17T21:28:00.035Z,22.17
2022-11-17T21:31:14.601Z,22.77
2022-11-17T21:34:17.754Z,20.27
2022-11-17T21:37:20.922Z,20.48
2022-11-17T21:40:24.307Z,20.70
2022-11-17T21:43:26.944Z,22.02
2022-11-17T21:46:32.464Z,22.70
2022-11-17T21:49:35.207Z,21.63
2022-11-17T21:52:38.028Z,21.27
2022-11-17T21:55:40.849Z,22.20
2022-11-17T21:58:43.674Z,21.42
2022-11-17T22:01:46.430Z,21.55
2022-11-17T22:04:49.145Z,21.80
2022-11-17T22:07:51.814Z,22.48
2022-11-17T22:10:54.519Z,21.48
2022-11-17T22:13:57.732Z,21.27
2022-11-17T22:17:01.630Z,21.30
2022-11-17T22:20:05.000Z,22.70
2022-11-17T22:23:07.802Z,20.08
2022-11-17T22:26:10.867Z,21.60
2022-11-17T22:29:17.283Z,23.02
2022-11-17T22:32:20.701Z,19.30
2022-11-17T22:35:23.456Z,20.77
2022-11-17T22:38:29.446Z,24.17
2022-11-17T22:41:32.342Z,22.98
2022-11-17T22:44:35.168Z,20.70
2022-11-17T22:47:37.900Z,21.08
2022-11-17T22:50:40.849Z,22.37
2022-11-17T22:53:43.645Z,20.95
2022-11-17T22:56:46.373Z,19.63
2022-11-17T22:59:49.143Z,20.15
2022-11-17T23:02:51.950Z,20.17
2022-11-17T23:05:54.797Z,19.80
2022-11-17T23:08:58.500Z,19.25
2022-11-17T23:12:01.206Z,20.20
2022-11-17T23:15:04.383Z,21.60
2022-11-17T23:18:07.224Z,20.90
2022-11-17T23:21:10.768Z,19.90
2022-11-17T23:24:14.868Z,19.75
2022-11-17T23:27:17.743Z,20.70
2022-11-17T23:30:20.525Z,18.90
2022-11-17T23:33:23.150Z,20.25
2022-11-17T23:36:25.899Z,20.40
2022-11-17T23:39:29.019Z,19.13
2022-11-17T23:42:32.824Z,19.00
2022-11-17T23:45:36.148Z,18.23
2022-11-17T23:48:39.196Z,18.60
2022-11-17T23:51:42.323Z,16.53
2022-11-17T23:54:45.094Z,17.00
2022-11-17T23:57:47.854Z,17.30
